Time;durP1;ratioP1;P1;durP2;ratioP2;P2;SDS_P1;SDS_P2;PMS_P1;PMS_P2;Temp;Humidity;BMP_temperature;BMP_pressure;BME280_temperature;BME280_humidity;BME280_pressure;Samples;Min_cycle;Max_cycle;Signal;HPM_P1;HPM_P2
2022/08/08 00:00:00;;;;;;;8.25;4.10;;;;;;;;;;5103948;28;20039;-64
2022/08/08 00:02:30;;;;;;;8.32;4.03;;;;;;;;;;5099906;28;20036;-63
2022/08/08 00:05:01;;;;;;;7.82;4.38;;;;;;;;;;5101820;28;20047;-63
2022/08/08 00:07:30;;;;;;;11.23;4.72;;;;;;;;;;5081503;28;20055;-63
2022/08/08 00:10:03;;;;;;;9.40;5.05;;;;;;;;;;5097166;28;20440;-63
2022/08/08 00:12:33;;;;;;;7.90;4.43;;;;;;;;;;5097068;28;20048;-64
2022/08/08 00:15:04;;;;;;;7.18;4.55;;;;;;;;;;5086480;28;20448;-63
2022/08/08 00:17:36;;;;;;;6.28;4.50;;;;;;;;;;5101596;28;20108;-63
2022/08/08 00:20:06;;;;;;;8.52;4.25;;;;;;;;;;5084304;28;20051;-63
2022/08/08 00:22:37;;;;;;;13.63;4.75;;;;;;;;;;5103175;28;20107;-64
2022/08/08 00:25:07;;;;;;;11.07;4.43;;;;;;;;;;5082041;28;20071;-63
2022/08/08 00:27:36;;;;;;;6.00;4.22;;;;;;;;;;5084510;28;20056;-63
2022/08/08 00:30:05;;;;;;;10.40;4.65;;;;;;;;;;5098630;28;20039;-63
2022/08/08 00:32:35;;;;;;;11.75;4.78;;;;;;;;;;5104779;28;20058;-63
2022/08/08 00:35:19;;;;;;;11.02;4.82;;;;;;;;;;5100581;28;20046;-63
2022/08/08 00:37:56;;;;;;;7.85;4.50;;;;;;;;;;5102237;28;20043;-64
2022/08/08 00:40:36;;;;;;;10.63;4.88;;;;;;;;;;5105941;28;20054;-63
2022/08/08 00:43:23;;;;;;;8.13;4.97;;;;;;;;;;5080321;28;20058;-63
2022/08/08 00:46:04;;;;;;;9.57;4.97;;;;;;;;;;5102695;28;20039;-63
2022/08/08 00:48:56;;;;;;;13.10;5.53;;;;;;;;;;5099776;28;20081;-63
2022/08/08 00:51:42;;;;;;;12.82;5.57;;;;;;;;;;5103034;28;20201;-63
2022/08/08 00:54:33;;;;;;;12.05;5.80;;;;;;;;;;5108716;28;20063;-64
2022/08/08 00:57:23;;;;;;;7.88;5.55;;;;;;;;;;5107121;28;20051;-64
2022/08/08 01:00:08;;;;;;;10.88;5.65;;;;;;;;;;5107463;28;20097;-63
2022/08/08 01:03:06;;;;;;;10.68;6.00;;;;;;;;;;5107146;28;20047;-63
2022/08/08 01:05:56;;;;;;;9.70;6.03;;;;;;;;;;5104967;28;20055;-64
2022/08/08 01:08:39;;;;;;;8.27;5.57;;;;;;;;;;5103757;28;20113;-63
2022/08/08 01:11:25;;;;;;;11.25;6.50;;;;;;;;;;5081532;28;20132;-63
2022/08/08 01:14:10;;;;;;;11.88;5.75;;;;;;;;;;5103167;28;20157;-64
2022/08/08 01:16:45;;;;;;;11.05;6.07;;;;;;;;;;5090048;28;21507;-63
2022/08/08 01:19:39;;;;;;;11.25;6.10;;;;;;;;;;5105635;28;20040;-63
2022/08/08 01:22:24;;;;;;;12.27;6.43;;;;;;;;;;5099526;28;20044;-64
2022/08/08 01:25:14;;;;;;;11.57;6.53;;;;;;;;;;5104414;28;20048;-64
2022/08/08 01:27:51;;;;;;;12.52;6.28;;;;;;;;;;5107068;28;20044;-64
2022/08/08 01:30:28;;;;;;;10.88;6.30;;;;;;;;;;5103756;28;20122;-64
2022/08/08 01:33:12;;;;;;;10.45;5.93;;;;;;;;;;5096452;28;20096;-63
2022/08/08 01:35:39;;;;;;;;;;;;;;;;;;5107950;28;20051;-63
2022/08/08 01:38:27;;;;;;;12.77;6.63;;;;;;;;;;5086216;28;19930;-64
2022/08/08 01:41:00;;;;;;;10.02;6.55;;;;;;;;;;5101662;28;20059;-63
2022/08/08 01:43:34;;;;;;;12.88;6.93;;;;;;;;;;5102517;28;20047;-64
2022/08/08 01:46:07;;;;;;;10.82;6.82;;;;;;;;;;5106503;28;20051;-63
2022/08/08 01:48:42;;;;;;;11.43;7.00;;;;;;;;;;5102618;28;20048;-63
2022/08/08 01:51:19;;;;;;;13.10;6.68;;;;;;;;;;5084343;28;20059;-64
2022/08/08 01:53:49;;;;;;;11.88;6.30;;;;;;;;;;5099729;28;20050;-64
2022/08/08 01:56:21;;;;;;;12.77;6.47;;;;;;;;;;5106065;28;20061;-64
2022/08/08 01:58:53;;;;;;;12.80;6.20;;;;;;;;;;5085661;28;20074;-64
2022/08/08 02:01:24;;;;;;;12.40;6.80;;;;;;;;;;5100983;28;20063;-63
2022/08/08 02:04:01;;;;;;;11.20;6.35;;;;;;;;;;5101317;28;20047;-63
2022/08/08 02:06:38;;;;;;;11.98;6.63;;;;;;;;;;5100334;28;20044;-63
2022/08/08 02:09:10;;;;;;;12.18;6.28;;;;;;;;;;5081286;28;20060;-63
2022/08/08 02:11:39;;;;;;;13.57;6.75;;;;;;;;;;5102375;28;20097;-63
2022/08/08 02:14:13;;;;;;;15.88;5.65;;;;;;;;;;5085114;28;20063;-64
2022/08/08 02:16:46;;;;;;;12.50;6.60;;;;;;;;;;5077244;28;20056;-64
2022/08/08 02:19:18;;;;;;;12.35;6.43;;;;;;;;;;5083053;28;20048;-64
2022/08/08 02:24:34;;;;;;;8.90;5.25;;;;;;;;;;5103594;28;20050;-64
2022/08/08 02:27:03;;;;;;;9.90;5.40;;;;;;;;;;5101127;28;20116;-64
2022/08/08 02:29:41;;;;;;;9.55;5.88;;;;;;;;;;5086108;28;20048;-64
2022/08/08 02:32:14;;;;;;;10.32;6.03;;;;;;;;;;5080971;28;20108;-64
2022/08/08 02:34:59;;;;;;;10.48;5.88;;;;;;;;;;5097809;28;20092;-63
2022/08/08 02:37:33;;;;;;;8.90;5.82;;;;;;;;;;5083980;28;20063;-63
2022/08/08 02:40:04;;;;;;;12.15;6.30;;;;;;;;;;5101728;28;20051;-64
2022/08/08 02:42:46;;;;;;;11.23;5.72;;;;;;;;;;5099614;28;20052;-64
2022/08/08 02:45:40;;;;;;;10.30;5.38;;;;;;;;;;5102926;28;20090;-64
2022/08/08 02:48:25;;;;;;;10.00;5.40;;;;;;;;;;5106958;28;20048;-64
2022/08/08 02:51:10;;;;;;;11.60;5.78;;;;;;;;;;5096927;28;20044;-64
2022/08/08 02:53:50;;;;;;;10.85;5.30;;;;;;;;;;5085405;28;20391;-64
2022/08/08 02:56:34;;;;;;;11.93;5.10;;;;;;;;;;5102108;28;20069;-64
2022/08/08 02:59:22;;;;;;;8.43;4.72;;;;;;;;;;5103828;28;20055;-64
2022/08/08 03:02:13;;;;;;;9.90;5.57;;;;;;;;;;5101455;28;20047;-64
2022/08/08 03:05:00;;;;;;;10.60;5.60;;;;;;;;;;5101321;28;20048;-64
2022/08/08 03:07:48;;;;;;;12.80;5.47;;;;;;;;;;5100461;28;20047;-64
2022/08/08 03:10:28;;;;;;;13.65;5.38;;;;;;;;;;5100745;28;20060;-64
2022/08/08 03:13:16;;;;;;;10.65;4.68;;;;;;;;;;5102496;28;20586;-64
2022/08/08 03:16:02;;;;;;;8.77;4.70;;;;;;;;;;5082182;28;20051;-64
2022/08/08 03:18:32;;;;;;;11.90;5.10;;;;;;;;;;5100866;28;20517;-63
2022/08/08 03:21:00;;;;;;;9.68;4.38;;;;;;;;;;5099109;28;20059;-64
2022/08/08 03:23:29;;;;;;;8.40;4.07;;;;;;;;;;5105762;28;20073;-64
2022/08/08 03:25:56;;;;;;;9.05;5.07;;;;;;;;;;5104342;28;20054;-64
2022/08/08 03:28:28;;;;;;;11.40;5.15;;;;;;;;;;5104428;28;20448;-63
2022/08/08 03:30:55;;;;;;;13.85;4.82;;;;;;;;;;5101262;28;20040;-64
2022/08/08 03:33:21;;;;;;;9.80;4.75;;;;;;;;;;5095060;28;20062;-65
2022/08/08 03:35:49;;;;;;;9.27;5.30;;;;;;;;;;5099989;28;21072;-63
2022/08/08 03:38:17;;;;;;;12.38;5.30;;;;;;;;;;5100807;28;20059;-64
2022/08/08 03:40:51;;;;;;;11.80;4.55;;;;;;;;;;5079383;28;20078;-64
2022/08/08 03:43:18;;;;;;;10.40;4.93;;;;;;;;;;5099089;28;20491;-64
2022/08/08 03:45:46;;;;;;;10.45;4.70;;;;;;;;;;5103308;28;20047;-64
2022/08/08 03:48:13;;;;;;;9.70;5.00;;;;;;;;;;5101208;28;20055;-64
2022/08/08 03:50:47;;;;;;;12.95;5.47;;;;;;;;;;5080979;28;20051;-64
2022/08/08 03:53:15;;;;;;;8.18;4.80;;;;;;;;;;5100145;28;20059;-64
2022/08/08 03:55:43;;;;;;;11.25;4.93;;;;;;;;;;5104373;28;20074;-64
2022/08/08 03:58:17;;;;;;;11.63;4.38;;;;;;;;;;5102974;28;20047;-64
2022/08/08 04:00:49;;;;;;;6.68;4.20;;;;;;;;;;5102502;28;20398;-64
2022/08/08 04:03:16;;;;;;;12.57;4.70;;;;;;;;;;5105236;28;20039;-64
2022/08/08 04:05:43;;;;;;;14.55;4.80;;;;;;;;;;5101017;28;20616;-64
2022/08/08 04:08:16;;;;;;;13.00;4.53;;;;;;;;;;5087577;28;20059;-64
2022/08/08 04:10:46;;;;;;;11.75;4.78;;;;;;;;;;5104980;28;20100;-64
2022/08/08 04:13:15;;;;;;;11.25;4.70;;;;;;;;;;5098852;28;20126;-64
2022/08/08 04:15:43;;;;;;;16.55;4.72;;;;;;;;;;5101289;28;20051;-64
2022/08/08 04:18:10;;;;;;;11.50;4.63;;;;;;;;;;5102669;28;20789;-64
2022/08/08 04:20:37;;;;;;;8.55;4.55;;;;;;;;;;5099267;28;20051;-65
2022/08/08 04:23:05;;;;;;;9.38;4.82;;;;;;;;;;5103655;28;20109;-64
2022/08/08 04:25:32;;;;;;;11.55;4.38;;;;;;;;;;5100411;28;20062;-63
2022/08/08 04:27:59;;;;;;;9.90;4.38;;;;;;;;;;5102337;28;20702;-64
2022/08/08 04:30:28;;;;;;;11.65;4.45;;;;;;;;;;5101729;28;20085;-64
2022/08/08 04:32:55;;;;;;;12.68;4.68;;;;;;;;;;5087441;28;20678;-64
2022/08/08 04:35:23;;;;;;;8.52;3.92;;;;;;;;;;5103607;28;20072;-64
2022/08/08 04:37:50;;;;;;;9.32;4.05;;;;;;;;;;5104676;28;20085;-65
2022/08/08 04:40:18;;;;;;;10.65;4.15;;;;;;;;;;5082231;28;20082;-64
2022/08/08 04:42:45;;;;;;;10.05;4.60;;;;;;;;;;5084124;28;20040;-64
2022/08/08 04:45:12;;;;;;;8.55;4.22;;;;;;;;;;5084295;28;20059;-64
2022/08/08 04:47:41;;;;;;;9.30;4.53;;;;;;;;;;5083771;28;20044;-63
2022/08/08 04:50:08;;;;;;;12.95;4.97;;;;;;;;;;5081788;28;20055;-64
2022/08/08 04:52:36;;;;;;;10.85;5.10;;;;;;;;;;5080127;28;20112;-64
2022/08/08 04:55:03;;;;;;;10.52;4.47;;;;;;;;;;5081692;28;20056;-64
2022/08/08 04:57:30;;;;;;;9.20;4.45;;;;;;;;;;5080751;28;20568;-64
2022/08/08 04:59:57;;;;;;;11.45;4.50;;;;;;;;;;5083815;28;20048;-64
2022/08/08 05:02:25;;;;;;;10.73;4.65;;;;;;;;;;5079740;28;20507;-63
2022/08/08 05:04:53;;;;;;;10.85;4.60;;;;;;;;;;5081157;28;20048;-64
2022/08/08 05:07:21;;;;;;;9.43;5.20;;;;;;;;;;5081879;28;20087;-64
2022/08/08 05:09:48;;;;;;;9.93;5.13;;;;;;;;;;5085087;28;20055;-63
2022/08/08 05:12:15;;;;;;;8.30;4.90;;;;;;;;;;5083339;28;20483;-64
2022/08/08 05:14:43;;;;;;;12.13;4.95;;;;;;;;;;5082043;28;20410;-64
2022/08/08 05:17:10;;;;;;;13.43;6.18;;;;;;;;;;5082699;28;20051;-64
2022/08/08 05:19:37;;;;;;;10.32;4.72;;;;;;;;;;5082560;28;20669;-64
2022/08/08 05:22:07;;;;;;;13.20;5.30;;;;;;;;;;5078266;28;20060;-64
2022/08/08 05:24:34;;;;;;;12.25;4.75;;;;;;;;;;5079879;28;20514;-64
2022/08/08 05:27:01;;;;;;;15.43;5.75;;;;;;;;;;5079267;28;20051;-64
2022/08/08 05:29:29;;;;;;;15.57;5.20;;;;;;;;;;5077627;28;20162;-64
2022/08/08 05:31:56;;;;;;;12.90;5.28;;;;;;;;;;5074804;28;20614;-64
2022/08/08 05:34:25;;;;;;;9.70;4.95;;;;;;;;;;5075946;28;20063;-65
2022/08/08 05:36:53;;;;;;;10.38;4.93;;;;;;;;;;5078613;28;20048;-64
2022/08/08 05:39:24;;;;;;;10.93;5.05;;;;;;;;;;5078689;28;20051;-65
2022/08/08 05:41:51;;;;;;;10.63;4.82;;;;;;;;;;5092082;28;20052;-64
2022/08/08 05:44:21;;;;;;;10.48;4.85;;;;;;;;;;5100492;28;20446;-65
2022/08/08 05:46:49;;;;;;;10.00;4.88;;;;;;;;;;5084618;28;20051;-65
2022/08/08 05:49:17;;;;;;;9.25;5.13;;;;;;;;;;5098512;28;20066;-64
2022/08/08 05:51:45;;;;;;;8.65;4.38;;;;;;;;;;5102394;28;20097;-64
2022/08/08 05:54:12;;;;;;;13.07;4.57;;;;;;;;;;5100388;28;20100;-65
2022/08/08 05:56:41;;;;;;;15.20;4.55;;;;;;;;;;5098957;28;20521;-64
2022/08/08 05:59:11;;;;;;;11.18;4.20;;;;;;;;;;5100599;28;20040;-64
2022/08/08 06:01:41;;;;;;;10.25;4.10;;;;;;;;;;5098903;28;21143;-64
2022/08/08 06:04:10;;;;;;;11.40;4.43;;;;;;;;;;5100286;28;20671;-64
2022/08/08 06:06:40;;;;;;;5.90;3.05;;;;;;;;;;5106767;28;20047;-64
2022/08/08 06:09:08;;;;;;;8.20;3.13;;;;;;;;;;5097962;28;20048;-64
2022/08/08 06:11:36;;;;;;;4.80;2.67;;;;;;;;;;5102528;28;20124;-64
2022/08/08 06:14:06;;;;;;;7.13;2.63;;;;;;;;;;5090485;28;20044;-65
2022/08/08 06:16:35;;;;;;;7.70;3.47;;;;;;;;;;5095890;28;20083;-65
2022/08/08 06:19:03;;;;;;;6.55;2.92;;;;;;;;;;5097545;28;20051;-66
2022/08/08 06:21:30;;;;;;;9.75;2.83;;;;;;;;;;5093054;28;20407;-64
2022/08/08 06:23:57;;;;;;;9.85;2.92;;;;;;;;;;5092386;28;20119;-63
2022/08/08 06:26:26;;;;;;;9.05;2.78;;;;;;;;;;5098542;28;20051;-64
2022/08/08 06:28:54;;;;;;;6.63;2.30;;;;;;;;;;5093038;28;20047;-61
2022/08/08 06:31:23;;;;;;;3.90;1.40;;;;;;;;;;5098282;28;20051;-61
2022/08/08 06:33:52;;;;;;;4.40;1.63;;;;;;;;;;5093964;28;20464;-61
2022/08/08 06:36:22;;;;;;;5.95;1.33;;;;;;;;;;5096729;28;20047;-61
2022/08/08 06:38:50;;;;;;;3.70;1.50;;;;;;;;;;5096388;28;20542;-61
2022/08/08 06:41:18;;;;;;;4.55;1.30;;;;;;;;;;5079198;28;20604;-61
2022/08/08 06:43:48;;;;;;;4.72;1.30;;;;;;;;;;5092562;28;20158;-61
2022/08/08 06:46:15;;;;;;;5.85;1.10;;;;;;;;;;5097909;28;20055;-61
2022/08/08 06:48:44;;;;;;;4.93;1.50;;;;;;;;;;5095353;28;20048;-61
2022/08/08 06:51:13;;;;;;;4.72;1.20;;;;;;;;;;5096771;28;20052;-61
2022/08/08 06:53:40;;;;;;;6.30;1.63;;;;;;;;;;5097011;28;20048;-61
2022/08/08 06:56:08;;;;;;;8.38;1.75;;;;;;;;;;5094116;28;20039;-61
2022/08/08 06:58:35;;;;;;;7.15;1.27;;;;;;;;;;5078629;28;20139;-61
2022/08/08 07:01:03;;;;;;;5.40;1.38;;;;;;;;;;5096360;28;20094;-61
2022/08/08 07:03:37;;;;;;;7.05;1.60;;;;;;;;;;5101993;28;20055;-61
2022/08/08 07:06:08;;;;;;;2.67;1.10;;;;;;;;;;5101001;28;20059;-61
2022/08/08 07:08:38;;;;;;;5.13;1.55;;;;;;;;;;5103668;28;20490;-62
2022/08/08 07:11:06;;;;;;;4.35;1.63;;;;;;;;;;5101178;28;20047;-61
2022/08/08 07:13:37;;;;;;;4.60;1.52;;;;;;;;;;5098086;28;20055;-61
2022/08/08 07:16:05;;;;;;;6.45;1.70;;;;;;;;;;5099912;28;20047;-61
2022/08/08 07:18:37;;;;;;;4.22;1.83;;;;;;;;;;5100120;28;20124;-61
2022/08/08 07:21:07;;;;;;;6.20;1.80;;;;;;;;;;5097367;28;20056;-61
2022/08/08 07:23:38;;;;;;;6.28;1.88;;;;;;;;;;5094308;28;20556;-61
2022/08/08 07:26:06;;;;;;;3.92;1.67;;;;;;;;;;5100721;28;20062;-61
2022/08/08 07:28:33;;;;;;;7.10;1.80;;;;;;;;;;5102385;28;20507;-61
2022/08/08 07:31:01;;;;;;;6.40;1.85;;;;;;;;;;5103098;28;20071;-60
2022/08/08 07:33:29;;;;;;;5.80;2.03;;;;;;;;;;5101415;28;20126;-61
2022/08/08 07:35:58;;;;;;;6.90;1.77;;;;;;;;;;5103035;28;20059;-61
2022/08/08 07:38:29;;;;;;;3.33;1.30;;;;;;;;;;5093567;28;20048;-61
2022/08/08 07:40:58;;;;;;;7.40;1.63;;;;;;;;;;5102009;28;20048;-61
2022/08/08 07:43:25;;;;;;;7.43;1.50;;;;;;;;;;5095182;28;20050;-63
2022/08/08 07:45:53;;;;;;;4.30;1.50;;;;;;;;;;5097163;28;20055;-62
2022/08/08 07:48:20;;;;;;;5.05;1.50;;;;;;;;;;5097896;28;20040;-66
2022/08/08 07:50:49;;;;;;;9.25;1.98;;;;;;;;;;5099513;28;20492;-61
2022/08/08 07:53:18;;;;;;;6.63;1.75;;;;;;;;;;5080690;28;20055;-60
2022/08/08 07:55:48;;;;;;;5.85;1.73;;;;;;;;;;5100935;28;20097;-61
2022/08/08 07:58:19;;;;;;;6.50;1.40;;;;;;;;;;5100755;28;20105;-61
2022/08/08 08:00:50;;;;;;;6.65;1.73;;;;;;;;;;5098619;28;20421;-62
2022/08/08 08:03:21;;;;;;;6.43;1.88;;;;;;;;;;5087308;28;20068;-61
2022/08/08 08:05:50;;;;;;;6.38;2.10;;;;;;;;;;5085647;28;20056;-61
2022/08/08 08:08:18;;;;;;;6.45;1.73;;;;;;;;;;5074516;28;20158;-61
2022/08/08 08:10:46;;;;;;;9.50;1.95;;;;;;;;;;5101659;28;20044;-61
2022/08/08 08:13:22;;;;;;;7.60;1.52;;;;;;;;;;5099095;28;20048;-61
2022/08/08 08:15:52;;;;;;;6.20;1.52;;;;;;;;;;5101034;28;20047;-61
2022/08/08 08:18:21;;;;;;;5.30;1.70;;;;;;;;;;5096556;28;20058;-60
2022/08/08 08:20:48;;;;;;;5.38;1.45;;;;;;;;;;5097568;28;20051;-62
2022/08/08 08:23:15;;;;;;;7.75;1.70;;;;;;;;;;5097295;28;20064;-61
2022/08/08 08:25:42;;;;;;;7.30;1.80;;;;;;;;;;5100849;28;20054;-62
2022/08/08 08:28:09;;;;;;;4.63;1.45;;;;;;;;;;5084759;28;20108;-61
2022/08/08 08:30:39;;;;;;;5.97;1.50;;;;;;;;;;5100279;28;20062;-60
2022/08/08 08:33:06;;;;;;;6.82;1.88;;;;;;;;;;5100413;28;20566;-61
2022/08/08 08:35:34;;;;;;;9.48;2.05;;;;;;;;;;5103411;28;20494;-60
2022/08/08 08:38:01;;;;;;;4.55;1.27;;;;;;;;;;5101365;28;20055;-62
2022/08/08 08:40:29;;;;;;;7.53;1.85;;;;;;;;;;5082784;28;20048;-61
2022/08/08 08:42:57;;;;;;;6.65;1.58;;;;;;;;;;5104262;28;20063;-61
2022/08/08 08:45:24;;;;;;;6.53;1.50;;;;;;;;;;5097591;28;20055;-61
2022/08/08 08:47:53;;;;;;;6.63;1.75;;;;;;;;;;5097541;28;20044;-60
2022/08/08 08:50:21;;;;;;;5.22;1.50;;;;;;;;;;5103605;28;20055;-61
2022/08/08 08:52:48;;;;;;;5.50;1.55;;;;;;;;;;5101028;28;20502;-61
2022/08/08 08:55:18;;;;;;;5.18;1.77;;;;;;;;;;5100608;28;20094;-61
2022/08/08 08:57:46;;;;;;;11.68;1.70;;;;;;;;;;5107453;28;20051;-61
2022/08/08 09:00:14;;;;;;;7.80;3.85;;;;;;;;;;5098632;28;20163;-61
2022/08/08 09:02:42;;;;;;;5.30;1.90;;;;;;;;;;5088529;28;20055;-60
2022/08/08 09:05:13;;;;;;;6.53;1.83;;;;;;;;;;5103201;28;20047;-60
2022/08/08 09:07:41;;;;;;;7.55;1.80;;;;;;;;;;5108171;28;20054;-61
2022/08/08 09:10:09;;;;;;;5.63;1.60;;;;;;;;;;5103342;27;20047;-61
2022/08/08 09:12:38;;;;;;;4.13;1.50;;;;;;;;;;5102187;28;20132;-60
2022/08/08 09:15:05;;;;;;;5.10;1.30;;;;;;;;;;5106688;28;20059;-61
2022/08/08 09:17:33;;;;;;;9.35;1.48;;;;;;;;;;5107666;28;20051;-61
2022/08/08 09:20:01;;;;;;;6.03;1.50;;;;;;;;;;5100056;28;20070;-61
2022/08/08 09:22:30;;;;;;;4.00;1.60;;;;;;;;;;5088910;28;20492;-61
2022/08/08 09:24:57;;;;;;;4.10;1.50;;;;;;;;;;5100783;28;20055;-61
2022/08/08 09:27:24;;;;;;;4.15;1.50;;;;;;;;;;5107890;28;20648;-61
2022/08/08 09:29:53;;;;;;;5.28;1.52;;;;;;;;;;5106603;27;20532;-61
2022/08/08 09:32:35;;;;;;;10.23;3.85;;;;;;;;;;5102569;28;20047;-61
2022/08/08 09:35:02;;;;;;;4.82;1.25;;;;;;;;;;5100605;28;20039;-61
2022/08/08 09:37:31;;;;;;;6.38;1.67;;;;;;;;;;5106760;28;20069;-61
2022/08/08 09:40:01;;;;;;;4.60;1.80;;;;;;;;;;5107181;28;20047;-61
2022/08/08 09:42:32;;;;;;;5.03;1.45;;;;;;;;;;5104243;28;20051;-60
2022/08/08 09:45:04;;;;;;;7.32;1.42;;;;;;;;;;5106297;28;20139;-61
2022/08/08 09:47:32;;;;;;;5.18;1.50;;;;;;;;;;5103542;28;20040;-61
2022/08/08 09:50:00;;;;;;;3.78;1.45;;;;;;;;;;5102481;28;20605;-61
2022/08/08 09:52:30;;;;;;;4.00;1.30;;;;;;;;;;5096124;28;20057;-61
2022/08/08 09:54:59;;;;;;;3.88;1.30;;;;;;;;;;5104541;28;20383;-62
2022/08/08 09:57:32;;;;;;;4.45;1.58;;;;;;;;;;5101634;28;20096;-60
2022/08/08 10:00:00;;;;;;;4.32;1.30;;;;;;;;;;5106966;28;20059;-61
2022/08/08 10:02:35;;;;;;;5.82;1.92;;;;;;;;;;5104273;28;20151;-61
2022/08/08 10:05:06;;;;;;;6.15;1.30;;;;;;;;;;5104074;28;20059;-62
2022/08/08 10:07:34;;;;;;;5.45;1.52;;;;;;;;;;5081097;28;20051;-60
2022/08/08 10:10:02;;;;;;;3.60;1.30;;;;;;;;;;5102228;28;20047;-61
2022/08/08 10:12:34;;;;;;;8.48;1.52;;;;;;;;;;5097574;28;20052;-61
2022/08/08 10:15:02;;;;;;;3.67;1.20;;;;;;;;;;5096717;28;20052;-62
2022/08/08 10:17:31;;;;;;;4.90;1.42;;;;;;;;;;5094703;28;20135;-61
2022/08/08 10:19:59;;;;;;;3.20;1.38;;;;;;;;;;5096058;28;20052;-62
2022/08/08 10:22:27;;;;;;;4.40;1.42;;;;;;;;;;5105547;28;20051;-62
2022/08/08 10:24:55;;;;;;;5.68;1.40;;;;;;;;;;5103210;28;20048;-61
2022/08/08 10:27:28;;;;;;;3.28;1.30;;;;;;;;;;5106681;28;20060;-62
2022/08/08 10:29:59;;;;;;;3.35;0.90;;;;;;;;;;5104633;28;20062;-62
2022/08/08 10:32:35;;;;;;;6.00;1.25;;;;;;;;;;5086968;28;20458;-61
2022/08/08 10:35:04;;;;;;;5.53;2.10;;;;;;;;;;5098281;28;20043;-61
2022/08/08 10:37:32;;;;;;;7.22;2.28;;;;;;;;;;5103773;28;20052;-61
2022/08/08 10:40:00;;;;;;;5.95;2.63;;;;;;;;;;5104159;28;20086;-62
2022/08/08 10:42:34;;;;;;;4.50;2.50;;;;;;;;;;5103398;28;20110;-61
2022/08/08 10:45:02;;;;;;;3.92;2.03;;;;;;;;;;5103413;28;20066;-61
2022/08/08 10:47:29;;;;;;;4.35;2.50;;;;;;;;;;5104512;28;20101;-61
2022/08/08 10:49:58;;;;;;;9.75;4.53;;;;;;;;;;5104074;28;20070;-61
2022/08/08 10:52:26;;;;;;;2.97;1.17;;;;;;;;;;5101258;28;20486;-61
2022/08/08 10:54:54;;;;;;;4.20;1.27;;;;;;;;;;5101632;28;20052;-62
2022/08/08 10:57:21;;;;;;;3.45;1.20;;;;;;;;;;5103714;28;20694;-61
2022/08/08 10:59:53;;;;;;;4.63;1.20;;;;;;;;;;5101713;28;20494;-62
2022/08/08 11:02:25;;;;;;;3.90;1.27;;;;;;;;;;5104261;28;20521;-62
2022/08/08 11:04:52;;;;;;;3.85;1.30;;;;;;;;;;5105825;28;20047;-61
2022/08/08 11:07:29;;;;;;;3.92;1.30;;;;;;;;;;5105598;28;20103;-61
2022/08/08 11:09:56;;;;;;;3.58;1.35;;;;;;;;;;5103282;28;20058;-61
2022/08/08 11:12:24;;;;;;;5.95;1.17;;;;;;;;;;5105187;28;20043;-61
2022/08/08 11:14:52;;;;;;;3.22;1.20;;;;;;;;;;5083308;28;20075;-61
2022/08/08 11:17:23;;;;;;;4.97;1.58;;;;;;;;;;5102295;28;20048;-61
2022/08/08 11:19:52;;;;;;;5.00;1.48;;;;;;;;;;5104988;28;20123;-62
2022/08/08 11:22:22;;;;;;;5.45;1.27;;;;;;;;;;5100294;28;20131;-62
2022/08/08 11:24:49;;;;;;;5.93;1.25;;;;;;;;;;5103231;28;20054;-61
2022/08/08 11:27:17;;;;;;;1.85;1.10;;;;;;;;;;5105686;28;20115;-61
2022/08/08 11:29:45;;;;;;;2.83;0.95;;;;;;;;;;5101621;28;20054;-61
2022/08/08 11:32:14;;;;;;;4.93;1.00;;;;;;;;;;5103897;28;20044;-61
2022/08/08 11:34:43;;;;;;;3.85;1.40;;;;;;;;;;5104159;28;20800;-62
2022/08/08 11:37:10;;;;;;;2.17;1.00;;;;;;;;;;5101727;28;20079;-63
2022/08/08 11:39:38;;;;;;;4.55;1.02;;;;;;;;;;5099977;28;20803;-61
2022/08/08 11:42:06;;;;;;;3.95;1.30;;;;;;;;;;5101154;28;20056;-61
2022/08/08 11:44:35;;;;;;;2.47;0.85;;;;;;;;;;5104469;28;20051;-62
2022/08/08 11:47:03;;;;;;;4.82;1.10;;;;;;;;;;5105160;28;20101;-61
2022/08/08 11:49:31;;;;;;;3.85;0.90;;;;;;;;;;5103900;28;20052;-62
2022/08/08 11:51:59;;;;;;;4.25;0.82;;;;;;;;;;5085716;28;20059;-62
2022/08/08 11:54:33;;;;;;;2.55;0.98;;;;;;;;;;5102796;28;20121;-61
2022/08/08 11:57:10;;;;;;;2.63;0.98;;;;;;;;;;5097547;28;20079;-61
2022/08/08 11:59:43;;;;;;;4.38;0.98;;;;;;;;;;5101005;28;20054;-62
2022/08/08 12:02:10;;;;;;;3.55;1.20;;;;;;;;;;5085825;28;20058;-61
2022/08/08 12:04:38;;;;;;;2.28;0.80;;;;;;;;;;5081938;28;20048;-62
2022/08/08 12:07:07;;;;;;;5.47;1.02;;;;;;;;;;5100696;28;20104;-61
2022/08/08 12:09:34;;;;;;;4.25;1.08;;;;;;;;;;5103130;28;20525;-62
2022/08/08 12:12:02;;;;;;;5.72;1.08;;;;;;;;;;5102626;28;20047;-62
2022/08/08 12:14:29;;;;;;;3.35;1.13;;;;;;;;;;5104054;28;20058;-61
2022/08/08 12:16:58;;;;;;;3.70;1.05;;;;;;;;;;5103331;28;20052;-61
2022/08/08 12:19:26;;;;;;;4.18;1.20;;;;;;;;;;5086471;28;20525;-61
2022/08/08 12:21:53;;;;;;;2.15;1.08;;;;;;;;;;5103744;28;20044;-61
2022/08/08 12:24:22;;;;;;;3.78;1.30;;;;;;;;;;5101529;28;20055;-61
2022/08/08 12:26:50;;;;;;;3.70;1.10;;;;;;;;;;5105301;28;20047;-61
2022/08/08 12:29:21;;;;;;;6.13;0.98;;;;;;;;;;5101839;28;20601;-61
2022/08/08 12:31:49;;;;;;;3.75;1.02;;;;;;;;;;5086802;28;20048;-61
2022/08/08 12:34:18;;;;;;;3.33;1.00;;;;;;;;;;5103371;28;20056;-61
2022/08/08 12:36:45;;;;;;;3.17;0.90;;;;;;;;;;5103406;28;20414;-61
2022/08/08 12:39:13;;;;;;;3.13;0.90;;;;;;;;;;5102963;28;20060;-62
2022/08/08 12:41:41;;;;;;;3.10;1.20;;;;;;;;;;5101656;28;20044;-61
2022/08/08 12:44:09;;;;;;;3.55;1.27;;;;;;;;;;5108998;28;20097;-61
2022/08/08 12:46:37;;;;;;;2.58;1.00;;;;;;;;;;5105465;28;20128;-61
2022/08/08 12:49:05;;;;;;;6.53;1.17;;;;;;;;;;5087082;28;20131;-61
2022/08/08 12:51:42;;;;;;;3.72;0.90;;;;;;;;;;5104374;28;20057;-61
2022/08/08 12:54:20;;;;;;;5.30;1.45;;;;;;;;;;5104261;28;20095;-61
2022/08/08 12:56:49;;;;;;;2.60;0.95;;;;;;;;;;5101534;28;20048;-62
2022/08/08 12:59:18;;;;;;;4.53;0.95;;;;;;;;;;5101207;28;20043;-61
2022/08/08 13:01:50;;;;;;;5.70;1.00;;;;;;;;;;5099551;28;20100;-62
2022/08/08 13:04:18;;;;;;;3.80;1.17;;;;;;;;;;5085087;28;20060;-60
2022/08/08 13:06:55;;;;;;;3.17;1.17;;;;;;;;;;5104570;28;20051;-62
2022/08/08 13:09:30;;;;;;;5.85;1.20;;;;;;;;;;5104677;28;20047;-61
2022/08/08 13:11:59;;;;;;;4.20;1.30;;;;;;;;;;5105251;27;20054;-62
2022/08/08 13:14:37;;;;;;;5.63;1.00;;;;;;;;;;5107905;28;20494;-61
2022/08/08 13:17:05;;;;;;;2.10;0.80;;;;;;;;;;5105572;28;20493;-62
2022/08/08 13:19:32;;;;;;;2.45;0.98;;;;;;;;;;5107549;28;20051;-62
2022/08/08 13:22:00;;;;;;;5.55;0.93;;;;;;;;;;5106960;28;20083;-62
2022/08/08 13:24:28;;;;;;;2.38;1.02;;;;;;;;;;5105370;28;20052;-61
2022/08/08 13:27:03;;;;;;;6.90;1.10;;;;;;;;;;5106172;28;20048;-61
2022/08/08 13:29:31;;;;;;;4.53;1.10;;;;;;;;;;5084607;28;20051;-62
2022/08/08 13:32:02;;;;;;;2.47;1.05;;;;;;;;;;5101222;28;20635;-61
2022/08/08 13:34:29;;;;;;;6.53;1.40;;;;;;;;;;5097132;28;20052;-62
2022/08/08 13:36:57;;;;;;;5.88;1.33;;;;;;;;;;5102916;28;20044;-62
2022/08/08 13:39:24;;;;;;;2.10;1.00;;;;;;;;;;5103674;28;20448;-62
2022/08/08 13:41:53;;;;;;;3.83;1.20;;;;;;;;;;5102846;28;20047;-62
2022/08/08 13:44:22;;;;;;;5.50;1.42;;;;;;;;;;5104496;28;20054;-61
2022/08/08 13:46:57;;;;;;;3.58;1.20;;;;;;;;;;5104246;28;20055;-62
2022/08/08 13:49:24;;;;;;;2.65;1.20;;;;;;;;;;5099257;28;20093;-61
2022/08/08 13:51:55;;;;;;;3.97;1.33;;;;;;;;;;5102417;28;20123;-61
2022/08/08 13:54:23;;;;;;;3.17;1.25;;;;;;;;;;5104875;28;20531;-63
2022/08/08 13:56:59;;;;;;;5.53;1.10;;;;;;;;;;5104358;28;20044;-61
2022/08/08 13:59:32;;;;;;;4.15;1.23;;;;;;;;;;5100955;28;20067;-61
2022/08/08 14:01:59;;;;;;;5.43;1.17;;;;;;;;;;5103663;28;21029;-62
2022/08/08 14:04:26;;;;;;;1.75;1.02;;;;;;;;;;5103872;28;20043;-63
2022/08/08 14:06:58;;;;;;;3.60;1.00;;;;;;;;;;5104010;28;20114;-63
2022/08/08 14:09:30;;;;;;;3.55;1.00;;;;;;;;;;5103288;28;20079;-61
2022/08/08 14:11:58;;;;;;;3.95;1.10;;;;;;;;;;5108273;27;20052;-61
2022/08/08 14:14:36;;;;;;;3.63;0.90;;;;;;;;;;5107710;28;20059;-62
2022/08/08 14:17:04;;;;;;;2.63;1.02;;;;;;;;;;5104306;28;20052;-62
2022/08/08 14:19:32;;;;;;;3.00;1.10;;;;;;;;;;5097719;28;20060;-63
2022/08/08 14:21:59;;;;;;;2.47;1.15;;;;;;;;;;5106799;28;20055;-62
2022/08/08 14:24:32;;;;;;;2.88;1.10;;;;;;;;;;5102482;28;20039;-62
2022/08/08 14:27:00;;;;;;;3.38;1.23;;;;;;;;;;5088940;28;20104;-62
2022/08/08 14:29:27;;;;;;;2.40;1.00;;;;;;;;;;5100450;28;20048;-62
2022/08/08 14:31:55;;;;;;;3.08;1.00;;;;;;;;;;5101171;28;20104;-62
2022/08/08 14:34:23;;;;;;;3.05;1.45;;;;;;;;;;5102163;28;20044;-62
2022/08/08 14:36:50;;;;;;;5.53;1.20;;;;;;;;;;5100933;28;20495;-62
2022/08/08 14:39:19;;;;;;;2.50;1.17;;;;;;;;;;5078882;28;20127;-61
2022/08/08 14:41:47;;;;;;;2.80;1.20;;;;;;;;;;5096861;28;20147;-62
2022/08/08 14:44:14;;;;;;;3.78;1.38;;;;;;;;;;5102954;28;20044;-62
2022/08/08 14:46:41;;;;;;;5.07;1.50;;;;;;;;;;5100319;28;20739;-62
2022/08/08 14:49:15;;;;;;;3.70;1.08;;;;;;;;;;5104097;28;20051;-62
2022/08/08 14:51:43;;;;;;;4.30;1.30;;;;;;;;;;5100038;28;20048;-62
2022/08/08 14:54:11;;;;;;;4.13;1.20;;;;;;;;;;5081676;28;20058;-61
2022/08/08 14:56:40;;;;;;;4.28;1.40;;;;;;;;;;5100020;28;20048;-61
2022/08/08 14:59:08;;;;;;;3.35;1.42;;;;;;;;;;5103375;28;20055;-61
2022/08/08 15:01:36;;;;;;;5.28;1.35;;;;;;;;;;5096436;28;20410;-61
2022/08/08 15:04:03;;;;;;;4.97;1.30;;;;;;;;;;5082211;28;20051;-61